Time;durP1;ratioP1;P1;durP2;ratioP2;P2;SDS_P1;SDS_P2;PMS_P1;PMS_P2;Temp;Humidity;BMP_temperature;BMP_pressure;BME280_temperature;BME280_humidity;BME280_pressure;Samples;Min_cycle;Max_cycle;Signal;HPM_P1;HPM_P2
2023/01/26 00:01:31;;;;;;;26.90;17.10;;;;;;;-2.58;100.00;100874.45;110214;1278;23192;-72
2023/01/26 00:03:59;;;;;;;28.10;17.70;;;;;;;-2.59;100.00;100870.91;110001;1278;22902;-72
2023/01/26 00:06:27;;;;;;;27.00;17.90;;;;;;;-2.59;100.00;100870.77;110203;1278;23249;-72
2023/01/26 00:08:56;;;;;;;27.70;18.30;;;;;;;-2.60;100.00;100869.86;110160;1275;22398;-72
2023/01/26 00:11:25;;;;;;;26.30;18.00;;;;;;;-2.63;100.00;100870.16;110273;1277;22292;-72
2023/01/26 00:13:54;;;;;;;27.60;18.00;;;;;;;-2.63;100.00;100864.81;110254;1277;23270;-72
2023/01/26 00:16:23;;;;;;;29.60;17.50;;;;;;;-2.61;100.00;100861.92;110262;1273;22273;-72
2023/01/26 00:18:52;;;;;;;26.20;16.60;;;;;;;-2.58;100.00;100859.30;107604;1271;22748;-72
2023/01/26 00:21:22;;;;;;;27.40;17.50;;;;;;;-2.61;100.00;100857.68;107315;1277;24356;-72
2023/01/26 00:23:51;;;;;;;29.00;18.00;;;;;;;-2.67;100.00;100852.39;107059;1277;23144;-72
2023/01/26 00:26:21;;;;;;;27.90;18.60;;;;;;;-2.68;100.00;100852.70;107520;1275;22511;-72
2023/01/26 00:28:50;;;;;;;33.90;19.60;;;;;;;-2.63;100.00;100853.98;107313;1272;22765;-72
2023/01/26 00:31:21;;;;;;;29.90;18.40;;;;;;;-2.57;100.00;100850.77;107545;1275;25317;-72
2023/01/26 00:33:50;;;;;;;28.60;17.50;;;;;;;-2.53;100.00;100845.80;107676;1273;22571;-72
2023/01/26 00:36:18;;;;;;;30.80;17.20;;;;;;;-2.55;100.00;100845.86;107683;1269;22628;-72
2023/01/26 00:38:48;;;;;;;28.60;18.10;;;;;;;-2.62;100.00;100847.29;107460;1274;24240;-72
2023/01/26 00:44:04;;;;;;;32.70;19.40;;;;;;;-2.77;100.00;100838.89;107612;1274;22623;-71
2023/01/26 00:46:33;;;;;;;33.10;19.20;;;;;;;-2.76;100.00;100834.03;107706;1275;25400;-72
2023/01/26 00:49:04;;;;;;;31.30;17.90;;;;;;;-2.71;100.00;100833.02;107528;1275;25421;-72
2023/01/26 00:51:33;;;;;;;37.70;20.70;;;;;;;-2.68;100.00;100828.34;107502;1274;22582;-72
2023/01/26 00:54:04;;;;;;;40.40;21.60;;;;;;;-2.69;100.00;100824.16;107482;1275;22529;-71
2023/01/26 00:56:33;;;;;;;40.70;23.70;;;;;;;-2.71;100.00;100824.77;110318;1275;22403;-73
2023/01/26 00:59:01;;;;;;;37.30;21.00;;;;;;;-2.70;100.00;100828.95;108842;1274;22564;-72
2023/01/26 01:01:29;;;;;;;35.80;21.00;;;;;;;-2.68;100.00;100828.20;109974;1275;25519;-72
2023/01/26 01:04:00;;;;;;;33.20;19.90;;;;;;;-2.64;100.00;100824.92;107451;1275;22528;-72
2023/01/26 01:06:29;;;;;;;31.70;18.30;;;;;;;-2.58;100.00;100825.66;107506;1274;25348;-72
2023/01/26 01:08:57;;;;;;;31.20;18.60;;;;;;;-2.56;100.00;100819.70;107261;1275;25250;-72
2023/01/26 01:11:26;;;;;;;30.80;18.20;;;;;;;-2.61;100.00;100818.40;107529;1269;25514;-72
2023/01/26 01:13:54;;;;;;;29.00;17.80;;;;;;;-2.65;100.00;100815.05;107458;1273;22664;-71
2023/01/26 01:16:22;;;;;;;32.00;18.30;;;;;;;-2.65;100.00;100821.08;107666;1275;22531;-72
2023/01/26 01:18:53;;;;;;;34.70;18.80;;;;;;;-2.64;100.00;100817.63;108270;1275;22588;-72
2023/01/26 01:21:22;;;;;;;35.90;20.00;;;;;;;-2.55;100.00;100816.86;107727;1272;23427;-72
2023/01/26 01:23:53;;;;;;;32.40;18.90;;;;;;;-2.45;100.00;100811.60;107751;1275;25382;-72
2023/01/26 01:26:21;;;;;;;28.20;17.70;;;;;;;-2.39;100.00;100810.42;107802;1268;23093;-72
2023/01/26 01:28:54;;;;;;;34.10;18.80;;;;;;;-2.39;100.00;100806.68;107160;1274;25504;-72
2023/01/26 01:31:22;;;;;;;30.20;18.40;;;;;;;-2.43;100.00;100801.90;107497;1272;22990;-72
2023/01/26 01:33:52;;;;;;;32.10;19.50;;;;;;;-2.46;100.00;100799.36;107689;1274;25351;-72
2023/01/26 01:36:22;;;;;;;33.10;19.20;;;;;;;-2.41;100.00;100794.75;107500;1271;25498;-71
2023/01/26 01:38:51;;;;;;;32.00;19.10;;;;;;;-2.36;100.00;100790.49;107409;1253;22549;-72
2023/01/26 01:41:21;;;;;;;29.20;18.30;;;;;;;-2.31;100.00;100785.73;107478;1273;24255;-72
2023/01/26 01:43:50;;;;;;;31.30;18.30;;;;;;;-2.34;100.00;100787.08;107469;1271;22655;-72
2023/01/26 01:46:31;;;;;;;32.00;18.60;;;;;;;-2.36;100.00;100779.31;107451;1270;25291;-72
2023/01/26 09:42:52;;;;;;;49.60;26.50;;;;;;;-2.22;100.00;100627.31;104491;1304;544928;-66
2023/01/26 09:45:45;;;;;;;43.00;23.30;;;;;;;-2.03;100.00;100634.52;106642;1289;24369;-66
2023/01/26 09:48:31;;;;;;;38.40;21.10;;;;;;;-1.85;100.00;100636.77;106509;1288;24234;-66
2023/01/26 09:51:08;;;;;;;29.70;17.40;;;;;;;-1.73;100.00;100627.96;109492;1288;22179;-67
2023/01/26 09:53:39;;;;;;;34.20;18.70;;;;;;;-1.67;100.00;100624.50;107089;1289;24493;-65
2023/01/26 09:56:27;;;;;;;32.20;19.30;;;;;;;-1.61;100.00;100624.79;106556;1286;228574;-65
2023/01/26 09:59:11;;;;;;;29.20;18.80;;;;;;;-1.43;100.00;100623.86;107203;1276;25364;-65
2023/01/26 10:01:43;;;;;;;26.50;17.10;;;;;;;-1.28;100.00;100615.61;106862;1259;22589;-64
2023/01/26 10:04:21;;;;;;;29.80;17.40;;;;;;;-1.16;100.00;100611.81;106850;1282;23250;-65
2023/01/26 10:06:53;;;;;;;28.10;17.90;;;;;;;-1.12;100.00;100615.23;107679;1273;23776;-66
2023/01/26 10:09:44;;;;;;;26.20;16.80;;;;;;;-1.05;100.00;100616.07;107644;1266;25360;-67
2023/01/26 10:12:18;;;;;;;25.10;16.30;;;;;;;-0.94;100.00;100612.87;107444;1269;25438;-67
2023/01/26 10:14:52;;;;;;;26.50;16.50;;;;;;;-0.87;100.00;100613.73;107693;1267;23250;-65
2023/01/26 10:17:25;;;;;;;24.50;16.50;;;;;;;-0.85;100.00;100610.33;107693;1267;22646;-67
2023/01/26 10:19:57;;;;;;;26.00;16.60;;;;;;;-0.90;100.00;100603.62;107623;1267;22527;-67
2023/01/26 10:22:43;;;;;;;27.00;15.80;;;;;;;-0.89;100.00;100597.98;107307;1275;22642;-66
2023/01/26 10:25:19;;;;;;;26.60;16.30;;;;;;;-0.76;100.00;100598.77;107401;1267;22674;-70
2023/01/26 10:27:47;;;;;;;25.00;16.20;;;;;;;-0.67;100.00;100595.86;110295;1270;22337;-67
2023/01/26 10:30:18;;;;;;;26.30;16.00;;;;;;;-0.62;100.00;100591.29;110386;1267;22216;-66
2023/01/26 10:32:49;;;;;;;24.70;17.00;;;;;;;-0.60;100.00;100585.52;110332;1268;22319;-66
2023/01/26 10:35:19;;;;;;;25.20;15.70;;;;;;;-0.56;100.00;100580.84;110262;1275;22479;-65
2023/01/26 10:37:47;;;;;;;23.20;15.00;;;;;;;-0.47;100.00;100576.96;110389;1275;22860;-65
2023/01/26 10:40:16;;;;;;;20.80;14.10;;;;;;;-0.39;100.00;100574.44;110296;1274;22539;-65
2023/01/26 10:42:56;;;;;;;22.10;14.40;;;;;;;-0.40;100.00;100569.45;110344;1273;22840;-65
2023/01/26 10:45:32;;;;;;;18.30;14.10;;;;;;;-0.42;100.00;100570.66;108381;1267;23092;-63
2023/01/26 10:48:02;;;;;;;;;;;;;;;-0.41;100.00;100563.63;107851;1273;23228;-65
2023/01/26 10:50:30;;;;;;;19.50;13.40;;;;;;;-0.30;100.00;100565.57;106841;1273;25246;-66
2023/01/26 10:53:03;;;;;;;22.70;15.70;;;;;;;-0.14;100.00;100566.38;107540;1274;25184;-64
2023/01/26 10:55:32;;;;;;;25.10;15.90;;;;;;;-0.06;100.00;100560.62;107535;1274;22549;-64
2023/01/26 10:58:01;;;;;;;19.40;13.50;;;;;;;-0.00;100.00;100552.98;106515;1274;23715;-64
2023/01/26 11:00:32;;;;;;;20.50;12.90;;;;;;;0.05;100.00;100561.80;106526;1275;23044;-64
2023/01/26 11:03:15;;;;;;;20.60;13.20;;;;;;;0.05;100.00;100556.86;106714;1267;22544;-64
2023/01/26 11:06:00;;;;;;;20.40;12.50;;;;;;;0.06;100.00;100552.84;106934;1274;25524;-67
2023/01/26 11:08:32;;;;;;;19.00;12.70;;;;;;;0.01;100.00;100548.54;107283;1275;23213;-64
2023/01/26 11:11:02;;;;;;;18.60;11.80;;;;;;;-0.05;100.00;100544.23;106589;1275;25359;-66
2023/01/26 11:13:31;;;;;;;18.60;11.80;;;;;;;-0.12;100.00;100541.38;107562;1275;25492;-65
2023/01/26 11:16:19;;;;;;;19.10;11.10;;;;;;;-0.22;100.00;100534.63;106987;1274;22561;-67
2023/01/26 11:18:55;;;;;;;22.50;12.90;;;;;;;-0.29;100.00;100538.60;107385;1275;22534;-68
2023/01/26 14:13:51;;;;;;;42.60;21.80;;;;;;;-2.26;100.00;100428.48;104212;1307;545592;-68
2023/01/26 14:16:40;;;;;;;43.30;21.00;;;;;;;-2.15;100.00;100434.27;106567;1289;25387;-68
2023/01/26 14:19:13;;;;;;;34.80;18.40;;;;;;;-1.96;100.00;100438.10;106552;1285;26540;-67
2023/01/26 14:21:51;;;;;;;34.30;18.10;;;;;;;-1.83;100.00;100439.77;106513;1289;23149;-67
2023/01/26 14:24:34;;;;;;;31.70;17.50;;;;;;;-1.70;100.00;100435.02;106633;1288;23361;-68
2023/01/26 14:27:02;;;;;;;32.30;17.20;;;;;;;-1.63;100.00;100432.54;106448;1281;231395;-67
2023/01/26 14:29:35;;;;;;;32.30;17.00;;;;;;;-1.61;100.00;100429.16;106756;1284;25321;-68
2023/01/26 14:32:04;;;;;;;33.50;17.80;;;;;;;-1.53;100.00;100426.98;106652;1288;22707;-68
2023/01/26 14:34:32;;;;;;;33.30;18.70;;;;;;;-1.44;100.00;100426.83;106953;1287;24413;-68
2023/01/26 14:37:13;;;;;;;36.00;20.10;;;;;;;-1.40;100.00;100427.81;106960;1286;22650;-69
2023/01/26 14:39:43;;;;;;;37.80;19.40;;;;;;;-1.37;100.00;100428.02;109563;1287;22982;-69
2023/01/26 14:42:13;;;;;;;33.60;18.60;;;;;;;-1.31;100.00;100430.04;109552;1288;22325;-68
2023/01/26 14:44:42;;;;;;;34.20;18.50;;;;;;;-1.22;100.00;100427.44;109621;1279;22274;-67
2023/01/26 14:47:25;;;;;;;32.20;17.40;;;;;;;-1.15;100.00;100425.21;109578;1287;22224;-67
2023/01/26 14:49:56;;;;;;;25.00;15.70;;;;;;;-1.14;100.00;100423.67;109821;1276;22328;-67
2023/01/26 14:52:26;;;;;;;37.80;20.00;;;;;;;-1.17;100.00;100424.50;107673;1278;22543;-67
2023/01/26 14:55:05;;;;;;;33.80;19.00;;;;;;;-1.18;100.00;100428.05;107001;1282;23913;-67
2023/01/26 14:57:33;;;;;;;36.10;19.90;;;;;;;-1.15;100.00;100422.35;107111;1281;23914;-67
2023/01/26 15:00:07;;;;;;;38.40;23.40;;;;;;;-1.12;100.00;100421.41;106966;1283;22582;-67
2023/01/26 15:02:46;;;;;;;37.90;22.70;;;;;;;-1.10;100.00;100419.89;107498;1276;22534;-66
2023/01/26 15:05:17;;;;;;;35.60;19.50;;;;;;;-1.14;100.00;100414.55;107122;1275;22614;-66
2023/01/26 15:07:56;;;;;;;33.90;20.50;;;;;;;-1.18;100.00;100413.42;107079;1276;25363;-66
2023/01/26 15:10:31;;;;;;;37.30;21.20;;;;;;;-1.16;100.00;100412.96;107132;1282;23141;-66
2023/01/26 15:13:14;;;;;;;32.60;19.00;;;;;;;-1.14;100.00;100413.85;107069;1283;22844;-67
2023/01/26 15:15:47;;;;;;;36.50;21.10;;;;;;;-1.17;100.00;100421.17;107042;1277;22663;-66
2023/01/26 15:18:20;;;;;;;34.60;20.70;;;;;;;-1.22;100.00;100419.63;107089;1275;22642;-66
2023/01/26 15:20:52;;;;;;;38.00;21.90;;;;;;;-1.20;100.00;100421.85;107118;1282;25510;-66
2023/01/26 15:23:31;;;;;;;35.50;20.60;;;;;;;-1.19;100.00;100421.75;106993;1279;26165;-66
2023/01/26 15:26:22;;;;;;;37.60;22.80;;;;;;;-1.19;100.00;100423.88;106786;1282;25308;-66
2023/01/26 15:28:54;;;;;;;37.60;22.00;;;;;;;-1.24;100.00;100425.32;106861;1282;25393;-67
2023/01/26 15:31:37;;;;;;;38.30;21.30;;;;;;;-1.23;100.00;100429.19;106823;1283;22532;-67
2023/01/26 15:34:25;;;;;;;35.50;21.30;;;;;;;-1.19;100.00;100425.81;109698;1279;22519;-67
2023/01/26 15:36:53;;;;;;;34.00;20.70;;;;;;;-1.16;100.00;100424.38;109742;1283;22544;-67
2023/01/26 15:39:27;;;;;;;37.80;20.70;;;;;;;-1.18;100.00;100419.70;109862;1276;22792;-67
2023/01/26 15:42:14;;;;;;;38.30;21.60;;;;;;;-1.19;100.00;100419.48;109985;1280;23229;-67
2023/01/26 15:44:43;;;;;;;39.00;22.30;;;;;;;-1.16;100.00;100420.81;109943;1272;22364;-66
2023/01/26 15:47:12;;;;;;;38.00;22.50;;;;;;;-1.13;100.00;100422.87;109862;1280;22233;-67
2023/01/26 15:49:41;;;;;;;35.50;21.60;;;;;;;-1.15;100.00;100425.52;109995;1280;22365;-67
2023/01/26 15:52:29;;;;;;;39.30;23.40;;;;;;;-1.19;100.00;100426.32;109987;1280;22471;-67
2023/01/26 15:54:58;;;;;;;35.90;21.10;;;;;;;-1.22;100.00;100429.61;110052;1278;23092;-67
2023/01/26 15:57:27;;;;;;;39.00;22.00;;;;;;;-1.20;100.00;100421.38;110098;1279;22452;-67
2023/01/26 15:59:55;;;;;;;36.50;22.40;;;;;;;-1.17;100.00;100425.56;110015;1280;22226;-68
2023/01/26 16:02:27;;;;;;;33.30;20.00;;;;;;;-1.13;100.00;100424.92;109960;1280;22398;-68
2023/01/26 16:04:55;;;;;;;37.50;22.50;;;;;;;-1.13;100.00;100422.05;109968;1280;22647;-66
2023/01/26 16:07:23;;;;;;;40.50;21.90;;;;;;;-1.15;100.00;100418.77;110016;1279;22518;-68
2023/01/26 16:09:52;;;;;;;34.90;20.20;;;;;;;-1.12;100.00;100420.79;110087;1279;22224;-67
2023/01/26 16:12:20;;;;;;;37.40;21.00;;;;;;;-1.07;100.00;100420.50;109998;1278;22405;-68
2023/01/26 16:15:20;;;;;;;33.20;20.20;;;;;;;-1.01;100.00;100429.93;109972;1280;22469;-67
2023/01/26 16:17:48;;;;;;;35.60;22.20;;;;;;;-0.98;100.00;100427.84;109805;1279;22194;-67
2023/01/26 16:20:17;;;;;;;39.20;23.70;;;;;;;-1.01;100.00;100432.23;109888;1281;23386;-67
2023/01/26 16:22:45;;;;;;;41.00;23.20;;;;;;;-1.07;100.00;100430.70;109978;1280;22287;-67
2023/01/26 16:25:25;;;;;;;35.20;21.80;;;;;;;-1.07;100.00;100428.02;109991;1280;22215;-67
2023/01/26 16:27:53;;;;;;;34.80;21.70;;;;;;;-1.05;100.00;100427.23;109988;1280;22213;-68
2023/01/26 16:30:22;;;;;;;36.10;21.00;;;;;;;-1.04;100.00;100423.81;108008;1279;23890;-67
2023/01/26 16:32:50;;;;;;;34.30;21.00;;;;;;;-1.05;100.00;100426.17;107446;1279;22525;-67
2023/01/26 16:35:19;;;;;;;34.10;20.80;;;;;;;-1.10;100.00;100424.92;107043;1280;25262;-67
2023/01/26 16:37:48;;;;;;;37.50;22.20;;;;;;;-1.15;100.00;100424.12;107163;1280;26170;-67
2023/01/26 16:40:17;;;;;;;35.50;22.60;;;;;;;-1.09;100.00;100428.44;107190;1279;25364;-67
2023/01/26 16:42:48;;;;;;;34.30;21.40;;;;;;;-1.05;100.00;100429.17;107348;1279;25389;-67
2023/01/26 16:45:21;;;;;;;35.80;22.30;;;;;;;-1.05;100.00;100424.98;107277;1280;23025;-67
2023/01/26 16:47:52;;;;;;;33.70;20.00;;;;;;;-1.10;100.00;100420.14;107067;1280;24407;-67
2023/01/26 16:50:22;;;;;;;36.60;22.10;;;;;;;-1.16;100.00;100422.20;107299;1277;25486;-69
2023/01/26 16:52:50;;;;;;;42.50;22.90;;;;;;;-1.15;100.00;100428.91;107369;1278;22649;-68
2023/01/26 16:55:19;;;;;;;38.10;22.00;;;;;;;-1.10;100.00;100427.82;107258;1280;25348;-68
2023/01/26 16:57:48;;;;;;;40.90;23.20;;;;;;;-1.03;100.00;100432.09;107290;1280;22552;-68
2023/01/26 17:00:20;;;;;;;38.50;23.90;;;;;;;-0.97;100.00;100433.16;107576;1277;25351;-68
2023/01/26 17:02:50;;;;;;;37.70;23.20;;;;;;;-0.98;100.00;100431.52;107416;1278;22653;-68
2023/01/26 17:05:21;;;;;;;42.30;22.40;;;;;;;-1.00;100.00;100430.39;107416;1279;23150;-68
2023/01/26 17:07:50;;;;;;;35.70;21.90;;;;;;;-0.96;100.00;100433.23;109856;1281;22990;-69
2023/01/26 17:10:21;;;;;;;36.40;21.40;;;;;;;-0.89;100.00;100434.44;109883;1279;22369;-68
2023/01/26 17:12:49;;;;;;;35.80;21.30;;;;;;;-0.87;100.00;100429.17;109949;1281;22255;-69
2023/01/26 17:15:18;;;;;;;36.80;22.20;;;;;;;-0.92;100.00;100432.94;109924;1280;22768;-69
2023/01/26 17:17:49;;;;;;;38.20;22.00;;;;;;;-0.94;100.00;100434.33;109935;1279;22520;-69
2023/01/26 17:20:18;;;;;;;38.00;22.10;;;;;;;-0.96;100.00;100430.39;109920;1280;22537;-68
2023/01/26 17:22:47;;;;;;;37.60;20.90;;;;;;;-0.95;100.00;100427.04;109935;1274;22310;-68
2023/01/26 17:25:34;;;;;;;33.80;19.60;;;;;;;-0.94;100.00;100427.00;107357;1280;23376;-68
2023/01/26 17:28:02;;;;;;;38.90;20.30;;;;;;;-0.93;100.00;100424.48;107262;1274;23296;-67
2023/01/26 17:30:32;;;;;;;36.80;21.40;;;;;;;-0.94;100.00;100420.22;107346;1275;26716;-68
2023/01/26 17:33:00;;;;;;;34.60;20.60;;;;;;;-0.97;100.00;100426.80;107230;1262;23785;-67
2023/01/26 17:35:29;;;;;;;43.80;22.20;;;;;;;-1.01;100.00;100427.95;107330;1280;23492;-67
2023/01/26 17:37:57;;;;;;;41.20;22.20;;;;;;;-1.00;100.00;100425.48;107354;1278;23836;-67
2023/01/26 17:40:25;;;;;;;34.70;20.90;;;;;;;-0.96;100.00;100427.56;107203;1280;22690;-68
2023/01/26 22:10:38;;;;;;;70.00;29.70;;;;;;;-2.64;100.00;100335.34;103678;1304;545384;-66
2023/01/26 22:13:06;;;;;;;66.10;31.00;;;;;;;-2.52;100.00;100340.20;109610;1287;23053;-67
2023/01/26 22:15:34;;;;;;;57.50;28.20;;;;;;;-2.34;100.00;100340.64;109634;1288;22220;-66
2023/01/26 22:18:04;;;;;;;49.00;25.30;;;;;;;-2.19;100.00;100339.98;110352;1276;22290;-67
2023/01/26 22:20:33;;;;;;;44.90;23.70;;;;;;;-2.04;100.00;100338.11;110356;1270;22341;-67
2023/01/26 22:23:01;;;;;;;42.40;23.00;;;;;;;-1.91;100.00;100337.66;110403;1276;23579;-67
2023/01/26 22:25:30;;;;;;;37.80;22.60;;;;;;;-1.79;100.00;100334.64;110321;1273;199852;-67
2023/01/26 22:27:58;;;;;;;39.30;21.70;;;;;;;-1.69;100.00;100334.30;110583;1273;22490;-67
2023/01/26 22:30:27;;;;;;;38.70;23.10;;;;;;;-1.65;100.00;100331.21;110464;1273;22731;-67
2023/01/26 22:32:55;;;;;;;41.20;22.50;;;;;;;-1.62;100.00;100328.35;110474;1273;22419;-67
2023/01/26 22:35:30;;;;;;;38.80;22.40;;;;;;;-1.54;100.00;100329.48;110444;1273;22502;-67
2023/01/26 22:37:58;;;;;;;39.20;21.90;;;;;;;-1.44;100.00;100323.26;110457;1274;22414;-67
2023/01/26 22:40:27;;;;;;;38.10;22.10;;;;;;;-1.38;100.00;100318.10;110492;1273;22921;-67
2023/01/26 22:42:55;;;;;;;38.90;23.10;;;;;;;-1.36;100.00;100321.01;110448;1273;22412;-67
2023/01/26 22:45:23;;;;;;;40.40;23.00;;;;;;;-1.33;100.00;100323.76;108078;1267;24374;-66
2023/01/26 22:47:52;;;;;;;42.90;24.00;;;;;;;-1.33;100.00;100315.81;108012;1273;26623;-66
2023/01/26 22:50:20;;;;;;;39.30;21.70;;;;;;;-1.28;100.00;100317.40;107733;1273;22569;-66
2023/01/26 22:52:49;;;;;;;40.60;22.60;;;;;;;-1.21;100.00;100322.58;107528;1274;25337;-66
2023/01/26 22:55:17;;;;;;;75.10;35.70;;;;;;;-1.17;100.00;100318.16;107643;1269;26072;-66
2023/01/26 22:57:46;;;;;;;44.10;25.00;;;;;;;-1.19;100.00;100316.77;107803;1270;25356;-66
2023/01/26 23:00:14;;;;;;;39.30;23.20;;;;;;;-1.21;100.00;100315.59;107675;1274;24897;-66
2023/01/26 23:02:42;;;;;;;37.30;22.20;;;;;;;-1.17;100.00;100317.37;107679;1274;23316;-66
2023/01/26 23:05:11;;;;;;;40.50;23.40;;;;;;;-1.16;100.00;100314.88;107774;1273;22661;-66
2023/01/26 23:07:39;;;;;;;35.50;22.30;;;;;;;-1.15;100.00;100315.47;107752;1267;23658;-66
2023/01/26 23:10:08;;;;;;;35.40;22.10;;;;;;;-1.18;100.00;100312.64;107777;1273;23456;-66
2023/01/26 23:12:36;;;;;;;38.90;23.10;;;;;;;-1.23;100.00;100306.40;107854;1267;24871;-66
2023/01/26 23:15:05;;;;;;;38.80;22.60;;;;;;;-1.27;100.00;100304.27;107862;1273;24514;-66
2023/01/26 23:17:34;;;;;;;39.90;22.10;;;;;;;-1.25;100.00;100302.61;107882;1270;23653;-66
2023/01/26 23:20:03;;;;;;;35.00;21.30;;;;;;;-1.20;100.00;100299.36;107852;1273;25317;-67
2023/01/26 23:22:31;;;;;;;39.90;22.30;;;;;;;-1.18;100.00;100296.00;107783;1274;26664;-66
2023/01/26 23:27:46;;;;;;;37.60;22.30;;;;;;;-1.26;100.00;100294.02;107705;1274;25230;-66
2023/01/26 23:30:15;;;;;;;40.80;22.90;;;;;;;-1.30;100.00;100291.94;110418;1274;22938;-67
2023/01/26 23:32:43;;;;;;;37.80;22.20;;;;;;;-1.26;100.00;100291.38;110453;1274;23236;-67
2023/01/26 23:35:11;;;;;;;38.20;20.50;;;;;;;-1.22;100.00;100293.33;110434;1274;22216;-67
2023/01/26 23:37:41;;;;;;;38.50;20.90;;;;;;;-1.18;100.00;100295.17;110467;1268;23119;-67
2023/01/26 23:40:09;;;;;;;36.20;21.80;;;;;;;-1.18;100.00;100296.24;110493;1274;22193;-67
2023/01/26 23:42:38;;;;;;;36.70;22.60;;;;;;;-1.19;100.00;100286.05;108688;1269;25334;-66
2023/01/26 23:45:28;;;;;;;38.30;22.70;;;;;;;-1.18;100.00;100285.35;107799;1274;26793;-66
